sensor_id;sensor_type;location;lat;lon;timestamp;P1;durP1;ratioP1;P2;durP2;ratioP2
10920;SDS011;5513;50.580;8.818;2022-10-17T00:01:40;3.40;;;2.60;;
10920;SDS011;5513;50.580;8.818;2022-10-17T00:04:08;7.07;;;2.57;;
10920;SDS011;5513;50.580;8.818;2022-10-17T00:06:36;7.53;;;3.00;;
10920;SDS011;5513;50.580;8.818;2022-10-17T00:09:05;4.93;;;3.43;;
10920;SDS011;5513;50.580;8.818;2022-10-17T00:11:36;9.70;;;4.83;;
10920;SDS011;5513;50.580;8.818;2022-10-17T00:14:05;6.63;;;3.80;;
10920;SDS011;5513;50.580;8.818;2022-10-17T00:16:34;5.50;;;4.13;;
10920;SDS011;5513;50.580;8.818;2022-10-17T00:19:03;5.13;;;2.90;;
10920;SDS011;5513;50.580;8.818;2022-10-17T00:21:33;5.17;;;3.03;;
10920;SDS011;5513;50.580;8.818;2022-10-17T00:24:01;8.03;;;3.20;;
10920;SDS011;5513;50.580;8.818;2022-10-17T00:26:31;4.37;;;3.07;;
10920;SDS011;5513;50.580;8.818;2022-10-17T00:29:01;5.90;;;2.87;;
10920;SDS011;5513;50.580;8.818;2022-10-17T00:31:31;5.13;;;3.00;;
10920;SDS011;5513;50.580;8.818;2022-10-17T00:34:02;5.43;;;3.03;;
10920;SDS011;5513;50.580;8.818;2022-10-17T00:36:31;7.77;;;2.97;;
10920;SDS011;5513;50.580;8.818;2022-10-17T00:39:00;7.27;;;3.20;;
10920;SDS011;5513;50.580;8.818;2022-10-17T00:41:29;5.23;;;2.90;;
10920;SDS011;5513;50.580;8.818;2022-10-17T00:44:00;7.97;;;3.80;;
10920;SDS011;5513;50.580;8.818;2022-10-17T00:46:32;7.37;;;3.00;;
10920;SDS011;5513;50.580;8.818;2022-10-17T00:49:03;7.03;;;3.33;;
10920;SDS011;5513;50.580;8.818;2022-10-17T00:51:36;7.10;;;3.30;;
10920;SDS011;5513;50.580;8.818;2022-10-17T00:54:09;4.20;;;2.63;;
10920;SDS011;5513;50.580;8.818;2022-10-17T00:56:40;3.33;;;2.53;;
10920;SDS011;5513;50.580;8.818;2022-10-17T00:59:11;5.63;;;2.90;;
10920;SDS011;5513;50.580;8.818;2022-10-17T01:01:45;7.33;;;3.00;;
10920;SDS011;5513;50.580;8.818;2022-10-17T01:04:18;4.07;;;3.27;;
10920;SDS011;5513;50.580;8.818;2022-10-17T01:06:47;4.87;;;3.30;;
10920;SDS011;5513;50.580;8.818;2022-10-17T01:09:15;7.40;;;3.47;;
10920;SDS011;5513;50.580;8.818;2022-10-17T01:11:44;6.70;;;3.37;;
10920;SDS011;5513;50.580;8.818;2022-10-17T01:14:21;7.40;;;3.47;;
10920;SDS011;5513;50.580;8.818;2022-10-17T01:17:00;7.57;;;3.57;;
10920;SDS011;5513;50.580;8.818;2022-10-17T01:19:48;6.07;;;3.17;;
10920;SDS011;5513;50.580;8.818;2022-10-17T01:22:36;8.20;;;3.50;;
10920;SDS011;5513;50.580;8.818;2022-10-17T01:25:17;6.03;;;3.33;;
10920;SDS011;5513;50.580;8.818;2022-10-17T01:27:59;6.40;;;3.10;;
10920;SDS011;5513;50.580;8.818;2022-10-17T01:31:03;7.57;;;3.20;;
10920;SDS011;5513;50.580;8.818;2022-10-17T01:33:43;8.20;;;3.30;;
10920;SDS011;5513;50.580;8.818;2022-10-17T01:36:18;8.07;;;3.07;;
10920;SDS011;5513;50.580;8.818;2022-10-17T01:38:56;6.50;;;3.30;;
10920;SDS011;5513;50.580;8.818;2022-10-17T01:41:31;6.20;;;3.00;;
10920;SDS011;5513;50.580;8.818;2022-10-17T01:44:09;4.17;;;2.97;;
10920;SDS011;5513;50.580;8.818;2022-10-17T01:46:44;5.90;;;3.00;;
10920;SDS011;5513;50.580;8.818;2022-10-17T01:49:17;6.03;;;2.90;;
10920;SDS011;5513;50.580;8.818;2022-10-17T01:51:51;6.27;;;2.97;;
10920;SDS011;5513;50.580;8.818;2022-10-17T01:54:26;6.37;;;3.20;;
10920;SDS011;5513;50.580;8.818;2022-10-17T01:57:00;7.13;;;3.60;;
10920;SDS011;5513;50.580;8.818;2022-10-17T01:59:35;5.07;;;3.10;;
10920;SDS011;5513;50.580;8.818;2022-10-17T02:02:08;10.37;;;3.40;;
10920;SDS011;5513;50.580;8.818;2022-10-17T02:04:41;7.00;;;3.90;;
10920;SDS011;5513;50.580;8.818;2022-10-17T02:07:11;6.20;;;3.53;;
10920;SDS011;5513;50.580;8.818;2022-10-17T02:09:41;7.03;;;3.30;;
10920;SDS011;5513;50.580;8.818;2022-10-17T02:15:09;4.07;;;3.00;;
10920;SDS011;5513;50.580;8.818;2022-10-17T02:18:02;4.10;;;3.30;;
10920;SDS011;5513;50.580;8.818;2022-10-17T02:20:39;5.60;;;3.30;;
10920;SDS011;5513;50.580;8.818;2022-10-17T02:23:19;5.53;;;3.77;;
10920;SDS011;5513;50.580;8.818;2022-10-17T02:25:56;7.90;;;3.07;;
10920;SDS011;5513;50.580;8.818;2022-10-17T02:28:36;4.40;;;3.00;;
10920;SDS011;5513;50.580;8.818;2022-10-17T02:31:11;2.73;;;2.40;;
10920;SDS011;5513;50.580;8.818;2022-10-17T02:33:46;5.47;;;3.40;;
10920;SDS011;5513;50.580;8.818;2022-10-17T02:36:21;6.17;;;3.20;;
10920;SDS011;5513;50.580;8.818;2022-10-17T02:38:52;4.40;;;3.00;;
10920;SDS011;5513;50.580;8.818;2022-10-17T02:41:22;8.00;;;3.50;;
10920;SDS011;5513;50.580;8.818;2022-10-17T02:43:52;4.17;;;3.20;;
10920;SDS011;5513;50.580;8.818;2022-10-17T02:46:27;7.17;;;3.10;;
10920;SDS011;5513;50.580;8.818;2022-10-17T02:49:00;4.83;;;3.10;;
10920;SDS011;5513;50.580;8.818;2022-10-17T02:51:35;3.47;;;3.17;;
10920;SDS011;5513;50.580;8.818;2022-10-17T02:54:14;4.33;;;2.90;;
10920;SDS011;5513;50.580;8.818;2022-10-17T02:56:48;4.10;;;3.07;;
10920;SDS011;5513;50.580;8.818;2022-10-17T02:59:26;5.03;;;2.70;;
10920;SDS011;5513;50.580;8.818;2022-10-17T03:01:57;9.23;;;2.93;;
10920;SDS011;5513;50.580;8.818;2022-10-17T03:04:32;4.93;;;2.90;;
10920;SDS011;5513;50.580;8.818;2022-10-17T03:07:01;4.27;;;2.70;;
10920;SDS011;5513;50.580;8.818;2022-10-17T03:09:29;5.23;;;3.20;;
10920;SDS011;5513;50.580;8.818;2022-10-17T03:11:58;8.13;;;3.50;;
10920;SDS011;5513;50.580;8.818;2022-10-17T03:14:28;4.73;;;3.20;;
10920;SDS011;5513;50.580;8.818;2022-10-17T03:16:56;10.13;;;3.23;;
10920;SDS011;5513;50.580;8.818;2022-10-17T03:19:25;6.33;;;3.40;;
10920;SDS011;5513;50.580;8.818;2022-10-17T03:21:55;4.37;;;3.03;;
10920;SDS011;5513;50.580;8.818;2022-10-17T03:24:26;8.60;;;3.60;;
10920;SDS011;5513;50.580;8.818;2022-10-17T03:26:55;7.23;;;3.60;;
10920;SDS011;5513;50.580;8.818;2022-10-17T03:29:24;6.10;;;3.63;;
10920;SDS011;5513;50.580;8.818;2022-10-17T03:31:55;6.67;;;3.20;;
10920;SDS011;5513;50.580;8.818;2022-10-17T03:34:23;9.17;;;3.73;;
10920;SDS011;5513;50.580;8.818;2022-10-17T03:36:51;3.87;;;3.57;;
10920;SDS011;5513;50.580;8.818;2022-10-17T03:39:21;6.73;;;3.57;;
10920;SDS011;5513;50.580;8.818;2022-10-17T03:41:50;5.70;;;3.30;;
10920;SDS011;5513;50.580;8.818;2022-10-17T03:44:19;8.23;;;3.80;;
10920;SDS011;5513;50.580;8.818;2022-10-17T03:46:47;4.10;;;3.70;;
10920;SDS011;5513;50.580;8.818;2022-10-17T03:49:16;7.07;;;3.40;;
10920;SDS011;5513;50.580;8.818;2022-10-17T03:51:45;8.37;;;3.90;;
10920;SDS011;5513;50.580;8.818;2022-10-17T03:54:13;6.27;;;3.70;;
10920;SDS011;5513;50.580;8.818;2022-10-17T03:56:43;6.20;;;4.17;;
10920;SDS011;5513;50.580;8.818;2022-10-17T03:59:15;8.17;;;4.03;;
10920;SDS011;5513;50.580;8.818;2022-10-17T04:01:43;8.70;;;4.03;;
10920;SDS011;5513;50.580;8.818;2022-10-17T04:04:19;5.83;;;3.70;;
10920;SDS011;5513;50.580;8.818;2022-10-17T04:06:48;9.97;;;4.33;;
10920;SDS011;5513;50.580;8.818;2022-10-17T04:09:16;10.50;;;4.60;;
10920;SDS011;5513;50.580;8.818;2022-10-17T04:11:49;6.50;;;4.93;;
10920;SDS011;5513;50.580;8.818;2022-10-17T04:14:18;8.00;;;4.90;;
10920;SDS011;5513;50.580;8.818;2022-10-17T04:16:46;9.03;;;4.80;;
10920;SDS011;5513;50.580;8.818;2022-10-17T04:19:16;8.63;;;4.97;;
10920;SDS011;5513;50.580;8.818;2022-10-17T04:21:46;7.63;;;5.03;;
10920;SDS011;5513;50.580;8.818;2022-10-17T04:24:17;7.33;;;4.20;;
10920;SDS011;5513;50.580;8.818;2022-10-17T04:26:50;8.30;;;4.20;;
10920;SDS011;5513;50.580;8.818;2022-10-17T04:29:19;5.87;;;3.87;;
10920;SDS011;5513;50.580;8.818;2022-10-17T04:31:47;5.87;;;3.70;;
10920;SDS011;5513;50.580;8.818;2022-10-17T04:34:18;5.73;;;3.30;;
10920;SDS011;5513;50.580;8.818;2022-10-17T04:36:46;6.50;;;3.77;;
10920;SDS011;5513;50.580;8.818;2022-10-17T04:39:14;6.63;;;3.23;;
10920;SDS011;5513;50.580;8.818;2022-10-17T04:41:44;9.03;;;3.70;;
10920;SDS011;5513;50.580;8.818;2022-10-17T04:44:15;5.30;;;3.33;;
10920;SDS011;5513;50.580;8.818;2022-10-17T04:46:45;6.40;;;3.40;;
10920;SDS011;5513;50.580;8.818;2022-10-17T04:49:13;4.97;;;3.20;;
10920;SDS011;5513;50.580;8.818;2022-10-17T04:51:44;6.33;;;3.73;;
10920;SDS011;5513;50.580;8.818;2022-10-17T04:54:14;6.67;;;3.10;;
10920;SDS011;5513;50.580;8.818;2022-10-17T04:56:42;9.27;;;3.43;;
10920;SDS011;5513;50.580;8.818;2022-10-17T04:59:12;4.83;;;3.20;;
10920;SDS011;5513;50.580;8.818;2022-10-17T05:01:42;6.07;;;3.40;;
10920;SDS011;5513;50.580;8.818;2022-10-17T05:04:11;3.63;;;3.10;;
10920;SDS011;5513;50.580;8.818;2022-10-17T05:06:39;6.03;;;3.70;;
10920;SDS011;5513;50.580;8.818;2022-10-17T05:09:08;10.57;;;3.80;;
10920;SDS011;5513;50.580;8.818;2022-10-17T05:11:36;6.10;;;3.77;;
10920;SDS011;5513;50.580;8.818;2022-10-17T05:14:10;8.70;;;3.90;;
10920;SDS011;5513;50.580;8.818;2022-10-17T05:16:41;7.53;;;3.97;;
10920;SDS011;5513;50.580;8.818;2022-10-17T05:19:12;6.83;;;3.70;;
10920;SDS011;5513;50.580;8.818;2022-10-17T05:21:41;7.20;;;3.40;;
10920;SDS011;5513;50.580;8.818;2022-10-17T05:24:12;9.97;;;4.07;;
10920;SDS011;5513;50.580;8.818;2022-10-17T05:26:43;5.77;;;3.57;;
10920;SDS011;5513;50.580;8.818;2022-10-17T05:29:12;5.60;;;3.90;;
10920;SDS011;5513;50.580;8.818;2022-10-17T05:31:42;8.80;;;4.13;;
10920;SDS011;5513;50.580;8.818;2022-10-17T05:34:12;9.23;;;4.30;;
10920;SDS011;5513;50.580;8.818;2022-10-17T05:36:41;9.47;;;4.30;;
10920;SDS011;5513;50.580;8.818;2022-10-17T05:39:10;5.17;;;3.73;;
10920;SDS011;5513;50.580;8.818;2022-10-17T05:41:39;8.20;;;3.63;;
10920;SDS011;5513;50.580;8.818;2022-10-17T05:44:11;9.13;;;3.80;;
10920;SDS011;5513;50.580;8.818;2022-10-17T05:46:41;8.17;;;4.00;;
10920;SDS011;5513;50.580;8.818;2022-10-17T05:49:10;10.03;;;3.67;;
10920;SDS011;5513;50.580;8.818;2022-10-17T05:51:57;11.07;;;3.73;;
10920;SDS011;5513;50.580;8.818;2022-10-17T05:54:25;9.57;;;3.67;;
10920;SDS011;5513;50.580;8.818;2022-10-17T05:56:54;5.10;;;3.60;;
10920;SDS011;5513;50.580;8.818;2022-10-17T05:59:23;10.40;;;4.07;;
10920;SDS011;5513;50.580;8.818;2022-10-17T06:01:54;9.17;;;4.27;;
10920;SDS011;5513;50.580;8.818;2022-10-17T06:04:23;7.80;;;3.77;;
10920;SDS011;5513;50.580;8.818;2022-10-17T06:06:55;6.53;;;4.17;;
10920;SDS011;5513;50.580;8.818;2022-10-17T06:09:24;5.83;;;3.47;;
10920;SDS011;5513;50.580;8.818;2022-10-17T06:11:53;4.97;;;3.77;;
10920;SDS011;5513;50.580;8.818;2022-10-17T06:14:23;5.70;;;4.00;;
10920;SDS011;5513;50.580;8.818;2022-10-17T06:16:55;5.47;;;3.80;;
10920;SDS011;5513;50.580;8.818;2022-10-17T06:19:24;5.57;;;3.73;;
10920;SDS011;5513;50.580;8.818;2022-10-17T06:21:53;8.30;;;3.67;;
10920;SDS011;5513;50.580;8.818;2022-10-17T06:24:22;8.87;;;4.20;;
10920;SDS011;5513;50.580;8.818;2022-10-17T06:26:53;7.87;;;4.63;;
10920;SDS011;5513;50.580;8.818;2022-10-17T06:29:24;10.87;;;4.73;;
10920;SDS011;5513;50.580;8.818;2022-10-17T06:31:55;6.73;;;4.33;;
10920;SDS011;5513;50.580;8.818;2022-10-17T06:34:24;7.63;;;4.30;;
10920;SDS011;5513;50.580;8.818;2022-10-17T06:36:53;9.40;;;4.13;;
10920;SDS011;5513;50.580;8.818;2022-10-17T06:39:22;5.50;;;4.10;;
10920;SDS011;5513;50.580;8.818;2022-10-17T06:41:52;6.87;;;4.50;;
10920;SDS011;5513;50.580;8.818;2022-10-17T06:44:21;8.03;;;5.90;;
10920;SDS011;5513;50.580;8.818;2022-10-17T06:46:55;8.30;;;6.07;;
10920;SDS011;5513;50.580;8.818;2022-10-17T06:49:24;8.87;;;5.33;;
10920;SDS011;5513;50.580;8.818;2022-10-17T06:51:52;8.63;;;5.20;;
10920;SDS011;5513;50.580;8.818;2022-10-17T06:54:21;8.30;;;5.27;;
10920;SDS011;5513;50.580;8.818;2022-10-17T06:56:51;9.30;;;5.20;;
10920;SDS011;5513;50.580;8.818;2022-10-17T06:59:20;7.13;;;4.47;;
10920;SDS011;5513;50.580;8.818;2022-10-17T07:01:48;7.50;;;4.50;;
10920;SDS011;5513;50.580;8.818;2022-10-17T07:04:19;11.07;;;5.53;;
10920;SDS011;5513;50.580;8.818;2022-10-17T07:06:47;7.93;;;5.00;;
10920;SDS011;5513;50.580;8.818;2022-10-17T07:09:17;6.77;;;4.83;;
10920;SDS011;5513;50.580;8.818;2022-10-17T07:11:48;7.50;;;4.70;;
10920;SDS011;5513;50.580;8.818;2022-10-17T07:14:19;8.10;;;4.53;;
10920;SDS011;5513;50.580;8.818;2022-10-17T07:16:48;4.67;;;4.10;;
10920;SDS011;5513;50.580;8.818;2022-10-17T07:19:19;7.10;;;4.20;;
10920;SDS011;5513;50.580;8.818;2022-10-17T07:21:47;8.00;;;4.40;;
10920;SDS011;5513;50.580;8.818;2022-10-17T07:24:16;5.23;;;3.63;;
10920;SDS011;5513;50.580;8.818;2022-10-17T07:26:44;7.23;;;4.13;;
10920;SDS011;5513;50.580;8.818;2022-10-17T07:29:14;9.03;;;4.23;;
10920;SDS011;5513;50.580;8.818;2022-10-17T07:31:43;10.03;;;4.53;;
10920;SDS011;5513;50.580;8.818;2022-10-17T07:34:14;9.73;;;4.77;;
10920;SDS011;5513;50.580;8.818;2022-10-17T07:36:44;12.13;;;4.90;;
10920;SDS011;5513;50.580;8.818;2022-10-17T07:39:13;6.73;;;4.80;;
10920;SDS011;5513;50.580;8.818;2022-10-17T07:41:43;7.50;;;4.70;;
10920;SDS011;5513;50.580;8.818;2022-10-17T07:44:13;7.57;;;4.10;;
10920;SDS011;5513;50.580;8.818;2022-10-17T07:46:41;9.00;;;4.20;;
10920;SDS011;5513;50.580;8.818;2022-10-17T07:49:10;4.57;;;4.00;;
10920;SDS011;5513;50.580;8.818;2022-10-17T07:51:38;13.13;;;4.90;;
10920;SDS011;5513;50.580;8.818;2022-10-17T07:54:08;9.23;;;4.60;;
10920;SDS011;5513;50.580;8.818;2022-10-17T07:56:37;7.77;;;4.87;;
10920;SDS011;5513;50.580;8.818;2022-10-17T07:59:05;6.17;;;4.30;;
10920;SDS011;5513;50.580;8.818;2022-10-17T08:01:35;7.83;;;4.00;;
10920;SDS011;5513;50.580;8.818;2022-10-17T08:04:05;6.03;;;4.40;;
10920;SDS011;5513;50.580;8.818;2022-10-17T08:06:34;9.93;;;4.60;;
10920;SDS011;5513;50.580;8.818;2022-10-17T08:09:03;8.17;;;4.03;;
10920;SDS011;5513;50.580;8.818;2022-10-17T08:11:33;7.80;;;4.07;;
10920;SDS011;5513;50.580;8.818;2022-10-17T08:14:01;9.50;;;4.17;;
10920;SDS011;5513;50.580;8.818;2022-10-17T08:16:30;5.20;;;3.60;;
10920;SDS011;5513;50.580;8.818;2022-10-17T08:18:59;5.07;;;3.87;;
10920;SDS011;5513;50.580;8.818;2022-10-17T08:21:29;8.17;;;4.03;;
10920;SDS011;5513;50.580;8.818;2022-10-17T08:23:58;9.73;;;3.87;;
10920;SDS011;5513;50.580;8.818;2022-10-17T08:26:28;4.57;;;3.60;;
10920;SDS011;5513;50.580;8.818;2022-10-17T08:28:59;6.63;;;3.63;;
10920;SDS011;5513;50.580;8.818;2022-10-17T08:31:29;5.50;;;3.73;;
10920;SDS011;5513;50.580;8.818;2022-10-17T08:33:58;6.37;;;3.13;;
10920;SDS011;5513;50.580;8.818;2022-10-17T08:36:26;9.83;;;3.63;;
10920;SDS011;5513;50.580;8.818;2022-10-17T08:38:56;5.73;;;3.40;;
10920;SDS011;5513;50.580;8.818;2022-10-17T08:41:33;5.60;;;3.20;;
10920;SDS011;5513;50.580;8.818;2022-10-17T08:44:16;4.60;;;3.20;;
10920;SDS011;5513;50.580;8.818;2022-10-17T08:46:57;10.20;;;3.20;;
10920;SDS011;5513;50.580;8.818;2022-10-17T08:49:33;7.40;;;3.77;;
10920;SDS011;5513;50.580;8.818;2022-10-17T08:52:10;8.70;;;3.20;;
10920;SDS011;5513;50.580;8.818;2022-10-17T08:54:47;5.10;;;3.13;;
10920;SDS011;5513;50.580;8.818;2022-10-17T08:57:19;11.17;;;3.60;;
10920;SDS011;5513;50.580;8.818;2022-10-17T08:59:50;6.27;;;2.93;;
10920;SDS011;5513;50.580;8.818;2022-10-17T09:02:37;7.37;;;3.30;;
10920;SDS011;5513;50.580;8.818;2022-10-17T09:05:20;6.53;;;2.90;;
10920;SDS011;5513;50.580;8.818;2022-10-17T09:07:56;5.97;;;2.73;;
10920;SDS011;5513;50.580;8.818;2022-10-17T09:10:37;5.43;;;2.70;;
10920;SDS011;5513;50.580;8.818;2022-10-17T09:13:18;5.90;;;2.87;;
10920;SDS011;5513;50.580;8.818;2022-10-17T09:19:08;10.17;;;2.90;;
10920;SDS011;5513;50.580;8.818;2022-10-17T09:21:46;6.17;;;3.10;;
10920;SDS011;5513;50.580;8.818;2022-10-17T09:24:22;5.90;;;3.13;;
10920;SDS011;5513;50.580;8.818;2022-10-17T09:27:08;6.60;;;3.20;;
10920;SDS011;5513;50.580;8.818;2022-10-17T09:29:47;5.20;;;3.00;;
10920;SDS011;5513;50.580;8.818;2022-10-17T09:32:20;9.37;;;3.00;;
10920;SDS011;5513;50.580;8.818;2022-10-17T09:34:53;6.13;;;2.57;;
10920;SDS011;5513;50.580;8.818;2022-10-17T09:37:30;6.40;;;2.80;;
10920;SDS011;5513;50.580;8.818;2022-10-17T09:40:00;6.93;;;2.67;;
10920;SDS011;5513;50.580;8.818;2022-10-17T09:42:28;5.97;;;3.00;;
10920;SDS011;5513;50.580;8.818;2022-10-17T09:45:02;4.90;;;3.07;;
10920;SDS011;5513;50.580;8.818;2022-10-17T09:47:46;5.80;;;2.70;;
10920;SDS011;5513;50.580;8.818;2022-10-17T09:50:30;5.33;;;2.60;;
10920;SDS011;5513;50.580;8.818;2022-10-17T09:53:01;4.87;;;2.70;;
10920;SDS011;5513;50.580;8.818;2022-10-17T09:55:36;5.13;;;3.07;;
10920;SDS011;5513;50.580;8.818;2022-10-17T09:58:13;6.67;;;2.90;;
10920;SDS011;5513;50.580;8.818;2022-10-17T10:00:43;5.77;;;2.70;;
10920;SDS011;5513;50.580;8.818;2022-10-17T10:03:15;5.80;;;2.80;;
10920;SDS011;5513;50.580;8.818;2022-10-17T10:08:47;3.57;;;2.90;;
10920;SDS011;5513;50.580;8.818;2022-10-17T10:11:17;4.80;;;3.00;;
10920;SDS011;5513;50.580;8.818;2022-10-17T10:13:47;5.73;;;3.13;;
10920;SDS011;5513;50.580;8.818;2022-10-17T10:16:19;7.37;;;2.93;;
10920;SDS011;5513;50.580;8.818;2022-10-17T10:18:51;4.47;;;3.03;;
10920;SDS011;5513;50.580;8.818;2022-10-17T10:21:21;7.67;;;2.87;;
10920;SDS011;5513;50.580;8.818;2022-10-17T10:26:41;6.67;;;2.57;;
10920;SDS011;5513;50.580;8.818;2022-10-17T10:29:19;5.13;;;2.80;;
10920;SDS011;5513;50.580;8.818;2022-10-17T10:31:51;4.10;;;2.70;;
10920;SDS011;5513;50.580;8.818;2022-10-17T10:34:23;7.97;;;2.50;;
10920;SDS011;5513;50.580;8.818;2022-10-17T10:36:57;6.27;;;2.73;;
10920;SDS011;5513;50.580;8.818;2022-10-17T10:39:36;4.77;;;3.00;;
10920;SDS011;5513;50.580;8.818;2022-10-17T10:42:26;6.87;;;2.90;;
10920;SDS011;5513;50.580;8.818;2022-10-17T10:44:57;4.97;;;2.80;;
10920;SDS011;5513;50.580;8.818;2022-10-17T10:47:37;4.03;;;2.70;;
10920;SDS011;5513;50.580;8.818;2022-10-17T10:50:07;5.50;;;2.87;;
10920;SDS011;5513;50.580;8.818;2022-10-17T10:53:15;4.23;;;2.73;;
10920;SDS011;5513;50.580;8.818;2022-10-17T10:56:02;5.50;;;2.87;;
10920;SDS011;5513;50.580;8.818;2022-10-17T10:58:36;5.13;;;2.87;;
10920;SDS011;5513;50.580;8.818;2022-10-17T11:01:13;4.40;;;2.80;;
10920;SDS011;5513;50.580;8.818;2022-10-17T11:03:52;5.87;;;2.70;;
10920;SDS011;5513;50.580;8.818;2022-10-17T11:06:28;7.07;;;2.90;;
10920;SDS011;5513;50.580;8.818;2022-10-17T11:09:11;8.23;;;3.50;;
10920;SDS011;5513;50.580;8.818;2022-10-17T11:11:48;7.30;;;3.30;;
10920;SDS011;5513;50.580;8.818;2022-10-17T11:14:32;5.90;;;3.10;;
10920;SDS011;5513;50.580;8.818;2022-10-17T11:17:11;5.63;;;2.70;;
10920;SDS011;5513;50.580;8.818;2022-10-17T11:19:48;7.70;;;2.87;;
10920;SDS011;5513;50.580;8.818;2022-10-17T11:22:35;4.03;;;2.80;;
10920;SDS011;5513;50.580;8.818;2022-10-17T11:25:19;8.23;;;3.07;;
10920;SDS011;5513;50.580;8.818;2022-10-17T11:27:55;7.37;;;2.60;;
10920;SDS011;5513;50.580;8.818;2022-10-17T11:30:36;7.60;;;2.83;;
10920;SDS011;5513;50.580;8.818;2022-10-17T11:33:09;3.50;;;2.57;;
10920;SDS011;5513;50.580;8.818;2022-10-17T11:35:42;5.30;;;2.50;;
10920;SDS011;5513;50.580;8.818;2022-10-17T11:38:15;5.07;;;2.67;;
10920;SDS011;5513;50.580;8.818;2022-10-17T11:40:50;7.22;;;3.10;;
10920;SDS011;5513;50.580;8.818;2022-10-17T11:43:22;5.83;;;2.80;;
10920;SDS011;5513;50.580;8.818;2022-10-17T11:45:57;6.50;;;2.60;;
10920;SDS011;5513;50.580;8.818;2022-10-17T11:48:31;4.00;;;2.75;;
10920;SDS011;5513;50.580;8.818;2022-10-17T11:51:06;5.68;;;2.70;;
10920;SDS011;5513;50.580;8.818;2022-10-17T11:53:56;5.83;;;2.53;;
10920;SDS011;5513;50.580;8.818;2022-10-17T11:56:37;8.23;;;2.90;;
10920;SDS011;5513;50.580;8.818;2022-10-17T12:02:10;5.18;;;2.58;;
10920;SDS011;5513;50.580;8.818;2022-10-17T12:04:47;7.53;;;2.63;;
10920;SDS011;5513;50.580;8.818;2022-10-17T12:07:26;6.22;;;2.72;;
10920;SDS011;5513;50.580;8.818;2022-10-17T12:10:02;7.60;;;3.25;;
10920;SDS011;5513;50.580;8.818;2022-10-17T12:12:45;5.10;;;2.45;;
10920;SDS011;5513;50.580;8.818;2022-10-17T12:15:27;8.25;;;2.47;;
10920;SDS011;5513;50.580;8.818;2022-10-17T12:17:58;4.97;;;2.97;;
10920;SDS011;5513;50.580;8.818;2022-10-17T12:20:29;8.23;;;2.95;;
10920;SDS011;5513;50.580;8.818;2022-10-17T12:23:16;7.68;;;2.88;;
10920;SDS011;5513;50.580;8.818;2022-10-17T12:25:55;7.65;;;2.97;;
10920;SDS011;5513;50.580;8.818;2022-10-17T12:28:32;6.28;;;2.60;;
10920;SDS011;5513;50.580;8.818;2022-10-17T12:31:09;5.20;;;2.60;;
10920;SDS011;5513;50.580;8.818;2022-10-17T12:33:59;4.55;;;2.83;;
10920;SDS011;5513;50.580;8.818;2022-10-17T12:42:28;7.70;;;2.47;;
10920;SDS011;5513;50.580;8.818;2022-10-17T12:51:29;7.15;;;3.03;;
10920;SDS011;5513;50.580;8.818;2022-10-17T12:54:47;6.80;;;2.72;;
10920;SDS011;5513;50.580;8.818;2022-10-17T12:57:39;6.70;;;2.63;;
10920;SDS011;5513;50.580;8.818;2022-10-17T13:00:16;5.80;;;2.40;;
10920;SDS011;5513;50.580;8.818;2022-10-17T13:02:53;4.75;;;2.70;;
10920;SDS011;5513;50.580;8.818;2022-10-17T13:05:25;5.53;;;2.50;;
10920;SDS011;5513;50.580;8.818;2022-10-17T13:07:56;4.90;;;2.50;;
10920;SDS011;5513;50.580;8.818;2022-10-17T13:10:29;4.90;;;2.58;;
10920;SDS011;5513;50.580;8.818;2022-10-17T13:13:03;4.68;;;2.85;;
10920;SDS011;5513;50.580;8.818;2022-10-17T13:15:36;5.32;;;2.63;;
10920;SDS011;5513;50.580;8.818;2022-10-17T13:18:12;3.85;;;2.53;;
10920;SDS011;5513;50.580;8.818;2022-10-17T13:20:54;4.82;;;2.80;;
10920;SDS011;5513;50.580;8.818;2022-10-17T13:23:29;3.63;;;2.42;;
10920;SDS011;5513;50.580;8.818;2022-10-17T13:26:05;5.18;;;2.50;;
10920;SDS011;5513;50.580;8.818;2022-10-17T13:28:42;3.95;;;2.63;;
10920;SDS011;5513;50.580;8.818;2022-10-17T13:31:25;5.68;;;2.63;;
10920;SDS011;5513;50.580;8.818;2022-10-17T13:34:02;5.82;;;2.40;;
10920;SDS011;5513;50.580;8.818;2022-10-17T13:36:32;8.85;;;2.90;;
10920;SDS011;5513;50.580;8.818;2022-10-17T13:39:04;5.05;;;2.50;;
10920;SDS011;5513;50.580;8.818;2022-10-17T13:41:40;6.60;;;2.58;;
10920;SDS011;5513;50.580;8.818;2022-10-17T13:44:12;2.95;;;2.53;;
10920;SDS011;5513;50.580;8.818;2022-10-17T13:46:42;4.25;;;2.80;;
10920;SDS011;5513;50.580;8.818;2022-10-17T13:49:14;8.18;;;3.17;;
10920;SDS011;5513;50.580;8.818;2022-10-17T13:51:52;5.07;;;2.80;;
10920;SDS011;5513;50.580;8.818;2022-10-17T13:57:17;9.57;;;2.83;;
10920;SDS011;5513;50.580;8.818;2022-10-17T13:59:48;7.43;;;2.78;;
10920;SDS011;5513;50.580;8.818;2022-10-17T14:02:18;6.80;;;2.97;;
10920;SDS011;5513;50.580;8.818;2022-10-17T14:04:59;4.93;;;2.78;;
10920;SDS011;5513;50.580;8.818;2022-10-17T14:07:45;7.47;;;2.60;;
10920;SDS011;5513;50.580;8.818;2022-10-17T14:10:37;5.28;;;2.70;;
10920;SDS011;5513;50.580;8.818;2022-10-17T14:13:20;4.68;;;2.92;;
10920;SDS011;5513;50.580;8.818;2022-10-17T14:15:49;8.05;;;3.10;;
10920;SDS011;5513;50.580;8.818;2022-10-17T14:18:20;6.68;;;2.60;;
10920;SDS011;5513;50.580;8.818;2022-10-17T14:21:02;7.35;;;2.95;;
10920;SDS011;5513;50.580;8.818;2022-10-17T14:24:06;5.63;;;2.97;;
10920;SDS011;5513;50.580;8.818;2022-10-17T14:26:46;6.00;;;3.17;;
10920;SDS011;5513;50.580;8.818;2022-10-17T14:29:25;7.53;;;2.95;;
10920;SDS011;5513;50.580;8.818;2022-10-17T14:31:59;6.88;;;2.85;;
10920;SDS011;5513;50.580;8.818;2022-10-17T14:34:32;6.97;;;2.92;;
10920;SDS011;5513;50.580;8.818;2022-10-17T14:37:10;5.80;;;2.65;;
10920;SDS011;5513;50.580;8.818;2022-10-17T14:39:47;5.75;;;2.60;;
10920;SDS011;5513;50.580;8.818;2022-10-17T14:42:17;5.30;;;2.80;;
10920;SDS011;5513;50.580;8.818;2022-10-17T14:44:47;7.53;;;2.72;;
10920;SDS011;5513;50.580;8.818;2022-10-17T14:47:18;7.65;;;3.10;;
10920;SDS011;5513;50.580;8.818;2022-10-17T14:50:19;6.28;;;2.97;;
10920;SDS011;5513;50.580;8.818;2022-10-17T14:53:02;11.27;;;3.30;;
10920;SDS011;5513;50.580;8.818;2022-10-17T14:55:32;5.25;;;2.70;;
10920;SDS011;5513;50.580;8.818;2022-10-17T14:58:14;6.18;;;2.83;;
10920;SDS011;5513;50.580;8.818;2022-10-17T15:00:46;4.87;;;2.90;;
10920;SDS011;5513;50.580;8.818;2022-10-17T15:03:14;5.93;;;3.20;;
10920;SDS011;5513;50.580;8.818;2022-10-17T15:05:44;7.30;;;3.50;;
10920;SDS011;5513;50.580;8.818;2022-10-17T15:08:15;7.60;;;3.17;;
10920;SDS011;5513;50.580;8.818;2022-10-17T15:10:46;4.07;;;3.10;;
10920;SDS011;5513;50.580;8.818;2022-10-17T15:13:15;12.87;;;3.20;;
10920;SDS011;5513;50.580;8.818;2022-10-17T15:15:55;7.07;;;2.90;;
10920;SDS011;5513;50.580;8.818;2022-10-17T15:18:25;6.93;;;3.23;;
10920;SDS011;5513;50.580;8.818;2022-10-17T15:20:56;6.70;;;3.30;;
10920;SDS011;5513;50.580;8.818;2022-10-17T15:23:39;7.30;;;3.30;;
10920;SDS011;5513;50.580;8.818;2022-10-17T15:26:12;6.03;;;3.57;;
10920;SDS011;5513;50.580;8.818;2022-10-17T15:28:43;5.13;;;2.83;;
10920;SDS011;5513;50.580;8.818;2022-10-17T15:31:14;9.53;;;3.53;;
10920;SDS011;5513;50.580;8.818;2022-10-17T15:33:44;9.20;;;3.90;;
10920;SDS011;5513;50.580;8.818;2022-10-17T15:36:17;7.97;;;4.10;;
10920;SDS011;5513;50.580;8.818;2022-10-17T15:38:49;10.27;;;5.87;;
10920;SDS011;5513;50.580;8.818;2022-10-17T15:41:18;8.43;;;4.53;;
10920;SDS011;5513;50.580;8.818;2022-10-17T15:43:48;9.00;;;4.47;;
10920;SDS011;5513;50.580;8.818;2022-10-17T15:46:17;8.77;;;4.30;;
10920;SDS011;5513;50.580;8.818;2022-10-17T15:48:48;11.03;;;6.03;;
10920;SDS011;5513;50.580;8.818;2022-10-17T15:51:23;11.10;;;5.60;;
10920;SDS011;5513;50.580;8.818;2022-10-17T15:53:59;11.10;;;6.77;;
10920;SDS011;5513;50.580;8.818;2022-10-17T15:56:28;12.10;;;5.13;;
10920;SDS011;5513;50.580;8.818;2022-10-17T15:59:01;15.67;;;8.40;;
10920;SDS011;5513;50.580;8.818;2022-10-17T16:01:33;15.00;;;6.70;;
10920;SDS011;5513;50.580;8.818;2022-10-17T16:04:03;15.10;;;6.47;;
10920;SDS011;5513;50.580;8.818;2022-10-17T16:06:34;18.17;;;8.83;;
10920;SDS011;5513;50.580;8.818;2022-10-17T16:09:06;15.67;;;8.50;;